sensor_id;sensor_type;location;lat;lon;timestamp;pressure;altitude;pressure_sealevel;temperature;humidity
44734;BME280;30462;52.446;-1.930;2023-03-26T00:00:18;98853.55078;;;;
44734;BME280;30462;52.446;-1.930;2023-03-26T00:01:19;98855.62109;;;;
44734;BME280;30462;52.446;-1.930;2023-03-26T00:02:17;98852.29297;;;;
44734;BME280;30462;52.446;-1.930;2023-03-26T00:03:18;98850.72266;;;;
44734;BME280;30462;52.446;-1.930;2023-03-26T00:04:18;98854.58594;;;;
44734;BME280;30462;52.446;-1.930;2023-03-26T00:05:18;98851.79297;;;;
44734;BME280;30462;52.446;-1.930;2023-03-26T00:06:19;98851.40625;;;;
44734;BME280;30462;52.446;-1.930;2023-03-26T00:07:18;98847.69141;;;;
44734;BME280;30462;52.446;-1.930;2023-03-26T00:08:18;98849.72266;;;;
44734;BME280;30462;52.446;-1.930;2023-03-26T00:09:18;98851.50391;;;;
44734;BME280;30462;52.446;-1.930;2023-03-26T00:10:18;98847.71094;;;;
44734;BME280;30462;52.446;-1.930;2023-03-26T00:11:19;98845.23828;;;;
44734;BME280;30462;52.446;-1.930;2023-03-26T00:12:18;98846.375;;;;
44734;BME280;30462;52.446;-1.930;2023-03-26T00:13:17;98844.70313;;;;
44734;BME280;30462;52.446;-1.930;2023-03-26T00:14:18;98845.98047;;;;
44734;BME280;30462;52.446;-1.930;2023-03-26T00:15:18;98845.97266;;;;
44734;BME280;30462;52.446;-1.930;2023-03-26T00:16:18;98850.47656;;;;
44734;BME280;30462;52.446;-1.930;2023-03-26T00:17:18;98847.5;;;;
44734;BME280;30462;52.446;-1.930;2023-03-26T00:18:18;98847.17188;;;;
44734;BME280;30462;52.446;-1.930;2023-03-26T00:19:18;98844.65234;;;;
44734;BME280;30462;52.446;-1.930;2023-03-26T00:20:19;98844.30078;;;;
44734;BME280;30462;52.446;-1.930;2023-03-26T00:21:19;98841.55469;;;;
44734;BME280;30462;52.446;-1.930;2023-03-26T00:22:18;98841.55469;;;;
44734;BME280;30462;52.446;-1.930;2023-03-26T00:23:18;98835.78516;;;;
44734;BME280;30462;52.446;-1.930;2023-03-26T00:24:18;98833.96484;;;;
44734;BME280;30462;52.446;-1.930;2023-03-26T00:25:18;98830.25391;;;;
44734;BME280;30462;52.446;-1.930;2023-03-26T00:26:18;98828.07031;;;;
44734;BME280;30462;52.446;-1.930;2023-03-26T00:27:18;98829.59375;;;;
44734;BME280;30462;52.446;-1.930;2023-03-26T00:28:18;98835.53516;;;;
44734;BME280;30462;52.446;-1.930;2023-03-26T00:29:17;98833.41406;;;;
44734;BME280;30462;52.446;-1.930;2023-03-26T00:30:18;98835.41406;;;;
44734;BME280;30462;52.446;-1.930;2023-03-26T00:31:18;98832.00781;;;;
44734;BME280;30462;52.446;-1.930;2023-03-26T00:32:18;98824.42188;;;;
44734;BME280;30462;52.446;-1.930;2023-03-26T00:33:18;98825.58203;;;;
44734;BME280;30462;52.446;-1.930;2023-03-26T00:34:18;98820.72656;;;;
44734;BME280;30462;52.446;-1.930;2023-03-26T00:35:18;98819.91016;;;;
44734;BME280;30462;52.446;-1.930;2023-03-26T00:36:19;98817.78516;;;;
44734;BME280;30462;52.446;-1.930;2023-03-26T00:37:17;98818.17188;;;;
44734;BME280;30462;52.446;-1.930;2023-03-26T00:38:18;98813.75781;;;;
44734;BME280;30462;52.446;-1.930;2023-03-26T00:39:18;98813.75391;;;;
44734;BME280;30462;52.446;-1.930;2023-03-26T00:40:18;98812.51953;;;;
44734;BME280;30462;52.446;-1.930;2023-03-26T00:41:18;98811.96875;;;;
44734;BME280;30462;52.446;-1.930;2023-03-26T00:42:18;98807.44922;;;;
44734;BME280;30462;52.446;-1.930;2023-03-26T00:43:19;98809.47266;;;;
44734;BME280;30462;52.446;-1.930;2023-03-26T00:44:17;98807.66797;;;;
44734;BME280;30462;52.446;-1.930;2023-03-26T00:45:18;98806.3125;;;;
44734;BME280;30462;52.446;-1.930;2023-03-26T00:46:18;98806.78906;;;;
44734;BME280;30462;52.446;-1.930;2023-03-26T00:47:18;98804.68359;;;;
44734;BME280;30462;52.446;-1.930;2023-03-26T00:48:19;98807.11719;;;;
44734;BME280;30462;52.446;-1.930;2023-03-26T00:49:17;98804.55859;;;;
44734;BME280;30462;52.446;-1.930;2023-03-26T00:50:18;98808.48828;;;;
44734;BME280;30462;52.446;-1.930;2023-03-26T00:51:18;98802.05859;;;;
44734;BME280;30462;52.446;-1.930;2023-03-26T00:52:18;98799.88281;;;;
44734;BME280;30462;52.446;-1.930;2023-03-26T00:53:18;98800.41016;;;;
44734;BME280;30462;52.446;-1.930;2023-03-26T00:54:18;98802.56641;;;;
44734;BME280;30462;52.446;-1.930;2023-03-26T00:55:18;98799.20703;;;;
44734;BME280;30462;52.446;-1.930;2023-03-26T00:56:18;98797.30859;;;;
44734;BME280;30462;52.446;-1.930;2023-03-26T00:57:18;98801.12109;;;;
44734;BME280;30462;52.446;-1.930;2023-03-26T00:58:18;98800.61328;;;;
44734;BME280;30462;52.446;-1.930;2023-03-26T00:59:18;98800.12891;;;;
44734;BME280;30462;52.446;-1.930;2023-03-26T01:00:18;98802.52734;;;;
44734;BME280;30462;52.446;-1.930;2023-03-26T01:01:18;98796.85938;;;;
44734;BME280;30462;52.446;-1.930;2023-03-26T01:02:18;98802.08203;;;;
44734;BME280;30462;52.446;-1.930;2023-03-26T01:03:19;98802.31641;;;;
44734;BME280;30462;52.446;-1.930;2023-03-26T01:04:20;98799.20313;;;;
44734;BME280;30462;52.446;-1.930;2023-03-26T01:06:20;98795.1875;;;;
44734;BME280;30462;52.446;-1.930;2023-03-26T01:07:18;98793.66797;;;;
44734;BME280;30462;52.446;-1.930;2023-03-26T01:08:20;98789.79688;;;;
44734;BME280;30462;52.446;-1.930;2023-03-26T01:09:19;98789.04297;;;;
44734;BME280;30462;52.446;-1.930;2023-03-26T01:10:18;98793.13672;;;;
44734;BME280;30462;52.446;-1.930;2023-03-26T01:11:19;98788.78516;;;;
44734;BME280;30462;52.446;-1.930;2023-03-26T01:12:19;98787.15234;;;;
44734;BME280;30462;52.446;-1.930;2023-03-26T01:13:19;98785.72266;;;;
44734;BME280;30462;52.446;-1.930;2023-03-26T01:14:19;98782.79688;;;;
44734;BME280;30462;52.446;-1.930;2023-03-26T01:15:18;98787.37109;;;;
44734;BME280;30462;52.446;-1.930;2023-03-26T01:16:20;98783.65234;;;;
44734;BME280;30462;52.446;-1.930;2023-03-26T01:17:18;98781.95313;;;;
44734;BME280;30462;52.446;-1.930;2023-03-26T01:18:18;98780.89844;;;;
44734;BME280;30462;52.446;-1.930;2023-03-26T01:19:23;98779.55078;;;;
44734;BME280;30462;52.446;-1.930;2023-03-26T01:20:22;98779.66016;;;;
44734;BME280;30462;52.446;-1.930;2023-03-26T01:21:19;98779.71484;;;;
44734;BME280;30462;52.446;-1.930;2023-03-26T01:22:19;98779.13672;;;;
44734;BME280;30462;52.446;-1.930;2023-03-26T01:23:19;98778.82813;;;;
44734;BME280;30462;52.446;-1.930;2023-03-26T01:24:18;98778.86719;;;;
44734;BME280;30462;52.446;-1.930;2023-03-26T01:25:18;98778.10156;;;;
44734;BME280;30462;52.446;-1.930;2023-03-26T01:27:19;98778.69531;;;;
44734;BME280;30462;52.446;-1.930;2023-03-26T01:28:18;98779.65234;;;;
44734;BME280;30462;52.446;-1.930;2023-03-26T01:29:21;98773.50781;;;;
44734;BME280;30462;52.446;-1.930;2023-03-26T01:30:22;98775.97656;;;;
44734;BME280;30462;52.446;-1.930;2023-03-26T01:31:19;98775.625;;;;
44734;BME280;30462;52.446;-1.930;2023-03-26T01:33:19;98776.37891;;;;
44734;BME280;30462;52.446;-1.930;2023-03-26T01:34:19;98774.91016;;;;
44734;BME280;30462;52.446;-1.930;2023-03-26T01:35:20;98778.94922;;;;
44734;BME280;30462;52.446;-1.930;2023-03-26T01:36:19;98773.09375;;;;
44734;BME280;30462;52.446;-1.930;2023-03-26T01:37:19;98773.80859;;;;
44734;BME280;30462;52.446;-1.930;2023-03-26T01:38:22;98770.5625;;;;
44734;BME280;30462;52.446;-1.930;2023-03-26T01:39:19;98772.88281;;;;
44734;BME280;30462;52.446;-1.930;2023-03-26T01:40:22;98766.58203;;;;
44734;BME280;30462;52.446;-1.930;2023-03-26T01:41:20;98764.46875;;;;
44734;BME280;30462;52.446;-1.930;2023-03-26T01:42:20;98762.65625;;;;
44734;BME280;30462;52.446;-1.930;2023-03-26T01:43:21;98765.82422;;;;
44734;BME280;30462;52.446;-1.930;2023-03-26T01:44:22;98765.67969;;;;
44734;BME280;30462;52.446;-1.930;2023-03-26T01:45:20;98767.92578;;;;
44734;BME280;30462;52.446;-1.930;2023-03-26T01:46:18;98766.13672;;;;
44734;BME280;30462;52.446;-1.930;2023-03-26T01:47:19;98771.25;;;;
44734;BME280;30462;52.446;-1.930;2023-03-26T01:48:18;98768.02734;;;;
44734;BME280;30462;52.446;-1.930;2023-03-26T01:49:18;98771.1875;;;;
44734;BME280;30462;52.446;-1.930;2023-03-26T01:50:18;98766.62891;;;;
44734;BME280;30462;52.446;-1.930;2023-03-26T01:52:19;98766.62109;;;;
44734;BME280;30462;52.446;-1.930;2023-03-26T01:53:18;98764.29297;;;;
44734;BME280;30462;52.446;-1.930;2023-03-26T01:54:19;98765.96094;;;;
44734;BME280;30462;52.446;-1.930;2023-03-26T01:55:18;98764.57031;;;;
44734;BME280;30462;52.446;-1.930;2023-03-26T01:56:19;98762.75;;;;
44734;BME280;30462;52.446;-1.930;2023-03-26T01:57:19;98762.76953;;;;
44734;BME280;30462;52.446;-1.930;2023-03-26T01:58:19;98762.04688;;;;
44734;BME280;30462;52.446;-1.930;2023-03-26T02:00:24;98761.09375;;;;
44734;BME280;30462;52.446;-1.930;2023-03-26T02:01:20;98761.29688;;;;
44734;BME280;30462;52.446;-1.930;2023-03-26T02:02:20;98761.07422;;;;
44734;BME280;30462;52.446;-1.930;2023-03-26T02:03:21;98757.82422;;;;
44734;BME280;30462;52.446;-1.930;2023-03-26T02:04:21;98757.08203;;;;
44734;BME280;30462;52.446;-1.930;2023-03-26T02:05:21;98757.70313;;;;
44734;BME280;30462;52.446;-1.930;2023-03-26T02:06:21;98752.46875;;;;
44734;BME280;30462;52.446;-1.930;2023-03-26T02:07:20;98753.67188;;;;
44734;BME280;30462;52.446;-1.930;2023-03-26T02:08:21;98749.13281;;;;
44734;BME280;30462;52.446;-1.930;2023-03-26T02:09:19;98747.93359;;;;
44734;BME280;30462;52.446;-1.930;2023-03-26T02:10:19;98742.87891;;;;
44734;BME280;30462;52.446;-1.930;2023-03-26T02:11:18;98746.85938;;;;
44734;BME280;30462;52.446;-1.930;2023-03-26T02:12:18;98739.65234;;;;
44734;BME280;30462;52.446;-1.930;2023-03-26T02:13:18;98744.62109;;;;
44734;BME280;30462;52.446;-1.930;2023-03-26T02:14:18;98741.19531;;;;
44734;BME280;30462;52.446;-1.930;2023-03-26T02:15:18;98734.875;;;;
44734;BME280;30462;52.446;-1.930;2023-03-26T02:16:19;98738.19141;;;;
44734;BME280;30462;52.446;-1.930;2023-03-26T02:17:18;98732.98828;;;;
44734;BME280;30462;52.446;-1.930;2023-03-26T02:18:18;98734.04297;;;;
44734;BME280;30462;52.446;-1.930;2023-03-26T02:19:18;98736.86719;;;;
44734;BME280;30462;52.446;-1.930;2023-03-26T02:20:19;98733.52344;;;;
44734;BME280;30462;52.446;-1.930;2023-03-26T02:21:19;98735.27344;;;;
44734;BME280;30462;52.446;-1.930;2023-03-26T02:22:18;98730.76172;;;;
44734;BME280;30462;52.446;-1.930;2023-03-26T02:23:18;98731.36719;;;;
44734;BME280;30462;52.446;-1.930;2023-03-26T02:24:18;98733.43359;;;;
44734;BME280;30462;52.446;-1.930;2023-03-26T02:25:19;98731.03516;;;;
44734;BME280;30462;52.446;-1.930;2023-03-26T02:26:18;98730.92969;;;;
44734;BME280;30462;52.446;-1.930;2023-03-26T02:27:18;98732.70313;;;;
44734;BME280;30462;52.446;-1.930;2023-03-26T02:28:18;98734.78125;;;;
44734;BME280;30462;52.446;-1.930;2023-03-26T02:29:18;98734.03125;;;;
44734;BME280;30462;52.446;-1.930;2023-03-26T02:30:19;98730.57813;;;;
44734;BME280;30462;52.446;-1.930;2023-03-26T02:31:18;98730.15625;;;;
44734;BME280;30462;52.446;-1.930;2023-03-26T02:32:18;98726.76563;;;;
44734;BME280;30462;52.446;-1.930;2023-03-26T02:33:17;98728.51172;;;;
44734;BME280;30462;52.446;-1.930;2023-03-26T02:34:18;98722.95703;;;;
44734;BME280;30462;52.446;-1.930;2023-03-26T02:35:18;98718.11328;;;;
44734;BME280;30462;52.446;-1.930;2023-03-26T02:36:18;98715.21875;;;;
44734;BME280;30462;52.446;-1.930;2023-03-26T02:37:18;98722.5625;;;;
44734;BME280;30462;52.446;-1.930;2023-03-26T02:38:18;98718.16406;;;;
44734;BME280;30462;52.446;-1.930;2023-03-26T02:39:18;98718.15625;;;;
44734;BME280;30462;52.446;-1.930;2023-03-26T02:40:18;98716.35547;;;;
44734;BME280;30462;52.446;-1.930;2023-03-26T02:41:18;98714.18359;;;;
44734;BME280;30462;52.446;-1.930;2023-03-26T02:42:18;98713.37109;;;;
44734;BME280;30462;52.446;-1.930;2023-03-26T02:43:18;98711.03906;;;;
44734;BME280;30462;52.446;-1.930;2023-03-26T02:44:18;98709.79297;;;;
44734;BME280;30462;52.446;-1.930;2023-03-26T02:45:18;98705.80859;;;;
44734;BME280;30462;52.446;-1.930;2023-03-26T02:46:18;98706.17969;;;;
44734;BME280;30462;52.446;-1.930;2023-03-26T02:47:18;98704.54297;;;;
44734;BME280;30462;52.446;-1.930;2023-03-26T02:48:18;98703.07813;;;;
44734;BME280;30462;52.446;-1.930;2023-03-26T02:49:18;98703.46875;;;;
44734;BME280;30462;52.446;-1.930;2023-03-26T02:50:18;98699.86328;;;;
44734;BME280;30462;52.446;-1.930;2023-03-26T02:51:18;98699.71875;;;;
44734;BME280;30462;52.446;-1.930;2023-03-26T02:52:18;98700.29688;;;;
44734;BME280;30462;52.446;-1.930;2023-03-26T02:53:18;98696.01563;;;;
44734;BME280;30462;52.446;-1.930;2023-03-26T02:54:18;98696.38281;;;;
44734;BME280;30462;52.446;-1.930;2023-03-26T02:55:18;98690.87891;;;;
44734;BME280;30462;52.446;-1.930;2023-03-26T02:56:18;98692.82813;;;;
44734;BME280;30462;52.446;-1.930;2023-03-26T02:57:18;98690.86719;;;;
44734;BME280;30462;52.446;-1.930;2023-03-26T02:58:18;98688.03125;;;;
44734;BME280;30462;52.446;-1.930;2023-03-26T02:59:18;98684.32031;;;;
44734;BME280;30462;52.446;-1.930;2023-03-26T03:00:18;98684.71094;;;;
44734;BME280;30462;52.446;-1.930;2023-03-26T03:01:18;98681.44531;;;;
44734;BME280;30462;52.446;-1.930;2023-03-26T03:02:18;98681.01953;;;;
44734;BME280;30462;52.446;-1.930;2023-03-26T03:03:18;98682.85547;;;;
44734;BME280;30462;52.446;-1.930;2023-03-26T03:04:18;98684.51563;;;;
44734;BME280;30462;52.446;-1.930;2023-03-26T03:05:18;98681.24609;;;;
44734;BME280;30462;52.446;-1.930;2023-03-26T03:06:18;98680.02734;;;;
44734;BME280;30462;52.446;-1.930;2023-03-26T03:07:18;98678.75391;;;;
44734;BME280;30462;52.446;-1.930;2023-03-26T03:08:18;98680.03125;;;;
44734;BME280;30462;52.446;-1.930;2023-03-26T03:09:18;98675.39063;;;;
44734;BME280;30462;52.446;-1.930;2023-03-26T03:10:18;98674.09766;;;;
44734;BME280;30462;52.446;-1.930;2023-03-26T03:11:18;98675.61328;;;;
44734;BME280;30462;52.446;-1.930;2023-03-26T03:12:18;98675.71875;;;;
44734;BME280;30462;52.446;-1.930;2023-03-26T03:13:18;98675.30078;;;;
44734;BME280;30462;52.446;-1.930;2023-03-26T03:14:18;98676.54688;;;;
44734;BME280;30462;52.446;-1.930;2023-03-26T03:15:18;98675.33203;;;;
44734;BME280;30462;52.446;-1.930;2023-03-26T03:16:18;98676.64063;;;;
44734;BME280;30462;52.446;-1.930;2023-03-26T03:17:18;98675.60547;;;;
44734;BME280;30462;52.446;-1.930;2023-03-26T03:18:18;98681.04297;;;;
44734;BME280;30462;52.446;-1.930;2023-03-26T03:19:18;98679.25781;;;;
44734;BME280;30462;52.446;-1.930;2023-03-26T03:20:19;98679.06641;;;;
44734;BME280;30462;52.446;-1.930;2023-03-26T03:21:18;98676.83984;;;;
44734;BME280;30462;52.446;-1.930;2023-03-26T03:22:18;98675.36719;;;;
44734;BME280;30462;52.446;-1.930;2023-03-26T03:23:18;98677.12109;;;;
44734;BME280;30462;52.446;-1.930;2023-03-26T03:24:18;98674.92188;;;;
44734;BME280;30462;52.446;-1.930;2023-03-26T03:25:18;98676.29297;;;;
44734;BME280;30462;52.446;-1.930;2023-03-26T03:26:19;98675.09766;;;;
44734;BME280;30462;52.446;-1.930;2023-03-26T03:27:18;98676.07813;;;;
44734;BME280;30462;52.446;-1.930;2023-03-26T03:28:17;98678.07422;;;;
44734;BME280;30462;52.446;-1.930;2023-03-26T03:29:18;98675.62109;;;;
44734;BME280;30462;52.446;-1.930;2023-03-26T03:30:18;98673.54688;;;;
44734;BME280;30462;52.446;-1.930;2023-03-26T03:31:18;98678.05469;;;;
44734;BME280;30462;52.446;-1.930;2023-03-26T03:32:18;98679.75;;;;
44734;BME280;30462;52.446;-1.930;2023-03-26T03:33:18;98681.27344;;;;
44734;BME280;30462;52.446;-1.930;2023-03-26T03:34:18;98681.20313;;;;
44734;BME280;30462;52.446;-1.930;2023-03-26T03:35:18;98680.05078;;;;
44734;BME280;30462;52.446;-1.930;2023-03-26T03:36:20;98684.54688;;;;
44734;BME280;30462;52.446;-1.930;2023-03-26T03:37:17;98685.4375;;;;
44734;BME280;30462;52.446;-1.930;2023-03-26T03:38:18;98686.14063;;;;
44734;BME280;30462;52.446;-1.930;2023-03-26T03:39:18;98688.86719;;;;
44734;BME280;30462;52.446;-1.930;2023-03-26T03:40:18;98686.625;;;;
44734;BME280;30462;52.446;-1.930;2023-03-26T03:41:18;98688.27344;;;;
44734;BME280;30462;52.446;-1.930;2023-03-26T03:42:18;98682.44922;;;;
44734;BME280;30462;52.446;-1.930;2023-03-26T03:43:18;98683.82422;;;;
44734;BME280;30462;52.446;-1.930;2023-03-26T03:44:18;98686.11328;;;;
44734;BME280;30462;52.446;-1.930;2023-03-26T03:45:18;98682.01172;;;;
44734;BME280;30462;52.446;-1.930;2023-03-26T03:46:17;98689.13672;;;;
44734;BME280;30462;52.446;-1.930;2023-03-26T03:47:18;98687.875;;;;
44734;BME280;30462;52.446;-1.930;2023-03-26T03:48:18;98689.62891;;;;
44734;BME280;30462;52.446;-1.930;2023-03-26T03:49:18;98687.24609;;;;
44734;BME280;30462;52.446;-1.930;2023-03-26T03:50:18;98689.10156;;;;
44734;BME280;30462;52.446;-1.930;2023-03-26T03:51:18;98685.79688;;;;
44734;BME280;30462;52.446;-1.930;2023-03-26T03:52:17;98690.26172;;;;
44734;BME280;30462;52.446;-1.930;2023-03-26T03:53:18;98687.60547;;;;
44734;BME280;30462;52.446;-1.930;2023-03-26T03:54:18;98684.98047;;;;
44734;BME280;30462;52.446;-1.930;2023-03-26T03:55:18;98685.51953;;;;
44734;BME280;30462;52.446;-1.930;2023-03-26T03:56:18;98686.79297;;;;
44734;BME280;30462;52.446;-1.930;2023-03-26T03:57:18;98686.39063;;;;
44734;BME280;30462;52.446;-1.930;2023-03-26T03:58:18;98685.15234;;;;
44734;BME280;30462;52.446;-1.930;2023-03-26T03:59:18;98683.58203;;;;
44734;BME280;30462;52.446;-1.930;2023-03-26T04:00:18;98686.5625;;;;
44734;BME280;30462;52.446;-1.930;2023-03-26T04:01:18;98683.42578;;;;
44734;BME280;30462;52.446;-1.930;2023-03-26T04:02:18;98684.05078;;;;
44734;BME280;30462;52.446;-1.930;2023-03-26T04:03:18;98684.48438;;;;
44734;BME280;30462;52.446;-1.930;2023-03-26T04:04:18;98682.6875;;;;
44734;BME280;30462;52.446;-1.930;2023-03-26T04:05:18;98683.71484;;;;
44734;BME280;30462;52.446;-1.930;2023-03-26T04:06:18;98676.57813;;;;
44734;BME280;30462;52.446;-1.930;2023-03-26T04:07:18;98678.97266;;;;
44734;BME280;30462;52.446;-1.930;2023-03-26T04:08:18;98677.61719;;;;
44734;BME280;30462;52.446;-1.930;2023-03-26T04:09:17;98679.01563;;;;
44734;BME280;30462;52.446;-1.930;2023-03-26T04:10:18;98680.69922;;;;
44734;BME280;30462;52.446;-1.930;2023-03-26T04:11:17;98680.17969;;;;
44734;BME280;30462;52.446;-1.930;2023-03-26T04:12:18;98681.96875;;;;
44734;BME280;30462;52.446;-1.930;2023-03-26T04:13:17;98680.71875;;;;
44734;BME280;30462;52.446;-1.930;2023-03-26T04:14:18;98686.78516;;;;
44734;BME280;30462;52.446;-1.930;2023-03-26T04:15:18;98678.63672;;;;
44734;BME280;30462;52.446;-1.930;2023-03-26T04:16:18;98679.5;;;;
44734;BME280;30462;52.446;-1.930;2023-03-26T04:17:18;98682.40625;;;;
44734;BME280;30462;52.446;-1.930;2023-03-26T04:18:18;98681.12891;;;;
44734;BME280;30462;52.446;-1.930;2023-03-26T04:19:18;98676.64063;;;;
44734;BME280;30462;52.446;-1.930;2023-03-26T04:20:18;98680.36719;;;;
44734;BME280;30462;52.446;-1.930;2023-03-26T04:21:18;98677.26953;;;;
44734;BME280;30462;52.446;-1.930;2023-03-26T04:22:18;98677.37891;;;;
44734;BME280;30462;52.446;-1.930;2023-03-26T04:23:18;98676.75391;;;;
44734;BME280;30462;52.446;-1.930;2023-03-26T04:24:18;98680.28125;;;;
44734;BME280;30462;52.446;-1.930;2023-03-26T04:25:18;98682.83594;;;;
44734;BME280;30462;52.446;-1.930;2023-03-26T04:26:18;98683.82422;;;;
44734;BME280;30462;52.446;-1.930;2023-03-26T04:27:19;98679.03125;;;;
44734;BME280;30462;52.446;-1.930;2023-03-26T04:29:18;98684.19531;;;;
44734;BME280;30462;52.446;-1.930;2023-03-26T04:30:18;98683.11719;;;;
44734;BME280;30462;52.446;-1.930;2023-03-26T04:31:18;98682.625;;;;
44734;BME280;30462;52.446;-1.930;2023-03-26T04:32:20;98681.58594;;;;
44734;BME280;30462;52.446;-1.930;2023-03-26T04:33:18;98681.03516;;;;
44734;BME280;30462;52.446;-1.930;2023-03-26T04:34:20;98683.26172;;;;
44734;BME280;30462;52.446;-1.930;2023-03-26T04:35:18;98688.92578;;;;
44734;BME280;30462;52.446;-1.930;2023-03-26T04:36:17;98682.82813;;;;
44734;BME280;30462;52.446;-1.930;2023-03-26T04:37:21;98683.83203;;;;
44734;BME280;30462;52.446;-1.930;2023-03-26T04:38:18;98681.82422;;;;
44734;BME280;30462;52.446;-1.930;2023-03-26T04:39:19;98683.49219;;;;
44734;BME280;30462;52.446;-1.930;2023-03-26T04:40:19;98686.48047;;;;
44734;BME280;30462;52.446;-1.930;2023-03-26T04:41:18;98685.84766;;;;
44734;BME280;30462;52.446;-1.930;2023-03-26T04:42:18;98685.37109;;;;
44734;BME280;30462;52.446;-1.930;2023-03-26T04:43:18;98689.01172;;;;
44734;BME280;30462;52.446;-1.930;2023-03-26T04:44:18;98683.28516;;;;
44734;BME280;30462;52.446;-1.930;2023-03-26T04:45:18;98687.91406;;;;
44734;BME280;30462;52.446;-1.930;2023-03-26T04:46:18;98688.61328;;;;
44734;BME280;30462;52.446;-1.930;2023-03-26T04:47:18;98691.71484;;;;
44734;BME280;30462;52.446;-1.930;2023-03-26T04:48:18;98690.51172;;;;
44734;BME280;30462;52.446;-1.930;2023-03-26T04:49:18;98693.44922;;;;
44734;BME280;30462;52.446;-1.930;2023-03-26T04:50:18;98686.70313;;;;
44734;BME280;30462;52.446;-1.930;2023-03-26T04:51:18;98687.53906;;;;
44734;BME280;30462;52.446;-1.930;2023-03-26T04:52:18;98688.22266;;;;
44734;BME280;30462;52.446;-1.930;2023-03-26T04:53:18;98692.53125;;;;
44734;BME280;30462;52.446;-1.930;2023-03-26T04:54:18;98689.875;;;;
44734;BME280;30462;52.446;-1.930;2023-03-26T04:55:20;98693.55859;;;;
44734;BME280;30462;52.446;-1.930;2023-03-26T04:57:18;98691.10156;;;;
44734;BME280;30462;52.446;-1.930;2023-03-26T04:58:18;98694.71875;;;;
44734;BME280;30462;52.446;-1.930;2023-03-26T04:59:19;98696.91797;;;;
44734;BME280;30462;52.446;-1.930;2023-03-26T05:00:18;98691.80078;;;;
44734;BME280;30462;52.446;-1.930;2023-03-26T05:01:18;98695.07422;;;;
44734;BME280;30462;52.446;-1.930;2023-03-26T05:02:18;98694.17969;;;;
44734;BME280;30462;52.446;-1.930;2023-03-26T05:03:18;98698.16406;;;;
44734;BME280;30462;52.446;-1.930;2023-03-26T05:04:18;98698.37109;;;;
44734;BME280;30462;52.446;-1.930;2023-03-26T05:05:18;98702.95313;;;;
44734;BME280;30462;52.446;-1.930;2023-03-26T05:06:18;98698.66406;;;;
44734;BME280;30462;52.446;-1.930;2023-03-26T05:07:19;98701.64063;;;;
44734;BME280;30462;52.446;-1.930;2023-03-26T05:08:18;98705.95313;;;;
44734;BME280;30462;52.446;-1.930;2023-03-26T05:09:18;98706.27734;;;;
44734;BME280;30462;52.446;-1.930;2023-03-26T05:10:18;98711.16797;;;;
44734;BME280;30462;52.446;-1.930;2023-03-26T05:11:18;98708.48438;;;;
44734;BME280;30462;52.446;-1.930;2023-03-26T05:12:18;98704.67969;;;;
44734;BME280;30462;52.446;-1.930;2023-03-26T05:13:18;98710.01563;;;;
44734;BME280;30462;52.446;-1.930;2023-03-26T05:14:18;98714.39844;;;;
44734;BME280;30462;52.446;-1.930;2023-03-26T05:15:18;98715.66406;;;;
44734;BME280;30462;52.446;-1.930;2023-03-26T05:16:18;98719.05469;;;;
44734;BME280;30462;52.446;-1.930;2023-03-26T05:17:18;98718.04297;;;;
44734;BME280;30462;52.446;-1.930;2023-03-26T05:18:18;98720.40625;;;;
44734;BME280;30462;52.446;-1.930;2023-03-26T05:19:18;98728.96875;;;;
44734;BME280;30462;52.446;-1.930;2023-03-26T05:20:19;98728.32422;;;;
44734;BME280;30462;52.446;-1.930;2023-03-26T05:21:17;98726.94922;;;;
44734;BME280;30462;52.446;-1.930;2023-03-26T05:22:18;98726.10547;;;;
44734;BME280;30462;52.446;-1.930;2023-03-26T05:23:17;98726.4375;;;;
44734;BME280;30462;52.446;-1.930;2023-03-26T05:24:17;98727.03906;;;;
44734;BME280;30462;52.446;-1.930;2023-03-26T05:25:17;98727.82422;;;;
44734;BME280;30462;52.446;-1.930;2023-03-26T05:26:18;98729.56641;;;;
44734;BME280;30462;52.446;-1.930;2023-03-26T05:27:18;98733.24219;;;;
44734;BME280;30462;52.446;-1.930;2023-03-26T05:28:18;98731.48438;;;;
44734;BME280;30462;52.446;-1.930;2023-03-26T05:29:18;98735.23828;;;;
44734;BME280;30462;52.446;-1.930;2023-03-26T05:30:19;98736.41406;;;;
44734;BME280;30462;52.446;-1.930;2023-03-26T05:31:18;98734.87109;;;;
44734;BME280;30462;52.446;-1.930;2023-03-26T05:32:18;98739.98438;;;;
44734;BME280;30462;52.446;-1.930;2023-03-26T05:33:18;98737.40234;;;;
44734;BME280;30462;52.446;-1.930;2023-03-26T05:34:18;98738.83984;;;;
44734;BME280;30462;52.446;-1.930;2023-03-26T05:35:18;98735.90625;;;;
44734;BME280;30462;52.446;-1.930;2023-03-26T05:36:18;98739.08594;;;;
44734;BME280;30462;52.446;-1.930;2023-03-26T05:37:18;98740.11719;;;;
44734;BME280;30462;52.446;-1.930;2023-03-26T05:38:18;98737.83594;;;;
44734;BME280;30462;52.446;-1.930;2023-03-26T05:39:19;98741.58203;;;;
44734;BME280;30462;52.446;-1.930;2023-03-26T05:40:18;98743.32031;;;;
44734;BME280;30462;52.446;-1.930;2023-03-26T05:41:18;98744.24609;;;;
44734;BME280;30462;52.446;-1.930;2023-03-26T05:42:18;98749.61719;;;;
44734;BME280;30462;52.446;-1.930;2023-03-26T05:43:18;98747.22656;;;;
44734;BME280;30462;52.446;-1.930;2023-03-26T05:44:18;98749.78125;;;;
44734;BME280;30462;52.446;-1.930;2023-03-26T05:45:18;98753.28125;;;;
44734;BME280;30462;52.446;-1.930;2023-03-26T05:46:18;98755.87891;;;;
44734;BME280;30462;52.446;-1.930;2023-03-26T05:47:18;98753.67578;;;;
44734;BME280;30462;52.446;-1.930;2023-03-26T05:48:18;98758.45313;;;;
44734;BME280;30462;52.446;-1.930;2023-03-26T05:49:17;98757.33203;;;;
44734;BME280;30462;52.446;-1.930;2023-03-26T05:50:18;98760.04688;;;;
44734;BME280;30462;52.446;-1.930;2023-03-26T05:51:18;98761.13672;;;;
44734;BME280;30462;52.446;-1.930;2023-03-26T05:52:18;98758.74609;;;;